RYR61LJ LEPA-LEZL
Flight info
| Callsign | RYR61LJ |
|---|---|
| Flight time | 1h 23m |
| Altitude | 35000 |
| Route | EPAMA N733 VLC M985 YES N747 BLN |
| Aircraft | B738/M-SDE2E3FGHIRWXY/LB1 |
Departure
| Time | 2026-04-21 09:28 |
|---|---|
| Airport | Palma de Mallorca Airport (LEPA) |
Arrival
| Time | 2026-04-21 10:52 |
|---|---|
| Airport | Seville Airport (LEZL) |
| Time | Latitude | Longitude | Altitude | Speed | Heading |
|---|---|---|---|---|---|
| 2026-04-21 08:47 | 39.54894 | 2.73809 | 27 ft | 0 kts | 249° |
| 2026-04-21 09:19 | 39.54899 | 2.73827 | 29 ft | 4 kts | 250° |
| 2026-04-21 09:19 | 39.54908 | 2.73860 | 29 ft | 4 kts | 253° |
| 2026-04-21 09:20 | 39.54915 | 2.73894 | 29 ft | 4 kts | 260° |
| 2026-04-21 09:20 | 39.54917 | 2.73928 | 29 ft | 4 kts | 277° |
| 2026-04-21 09:20 | 39.54909 | 2.73955 | 29 ft | 2 kts | 327° |
| 2026-04-21 09:20 | 39.54908 | 2.73956 | 29 ft | 1 kts | 328° |
| 2026-04-21 09:22 | 39.54916 | 2.73950 | 29 ft | 7 kts | 328° |
| 2026-04-21 09:22 | 39.54986 | 2.73893 | 29 ft | 14 kts | 329° |
| 2026-04-21 09:23 | 39.55067 | 2.73829 | 29 ft | 13 kts | 328° |
| 2026-04-21 09:23 | 39.55140 | 2.73775 | 29 ft | 8 kts | 347° |
| 2026-04-21 09:23 | 39.55180 | 2.73809 | 29 ft | 7 kts | 52° |
| 2026-04-21 09:23 | 39.55225 | 2.73814 | 29 ft | 7 kts | 330° |
| 2026-04-21 09:24 | 39.55296 | 2.73758 | 29 ft | 21 kts | 327° |
| 2026-04-21 09:24 | 39.55438 | 2.73645 | 29 ft | 24 kts | 328° |
| 2026-04-21 09:24 | 39.55563 | 2.73548 | 29 ft | 18 kts | 329° |
| 2026-04-21 09:24 | 39.55659 | 2.73513 | 29 ft | 13 kts | 33° |
| 2026-04-21 09:25 | 39.55709 | 2.73612 | 29 ft | 14 kts | 58° |
| 2026-04-21 09:25 | 39.55770 | 2.73741 | 29 ft | 18 kts | 59° |
| 2026-04-21 09:25 | 39.55832 | 2.73873 | 29 ft | 17 kts | 59° |
| 2026-04-21 09:25 | 39.55893 | 2.74002 | 29 ft | 16 kts | 59° |
| 2026-04-21 09:26 | 39.55951 | 2.74125 | 29 ft | 16 kts | 58° |
| 2026-04-21 09:26 | 39.56008 | 2.74244 | 29 ft | 15 kts | 58° |
| 2026-04-21 09:26 | 39.56061 | 2.74357 | 29 ft | 15 kts | 58° |
| 2026-04-21 09:26 | 39.56125 | 2.74452 | 29 ft | 14 kts | 20° |
| 2026-04-21 09:27 | 39.56211 | 2.74419 | 29 ft | 13 kts | 328° |
| 2026-04-21 09:27 | 39.56256 | 2.74326 | 29 ft | 13 kts | 264° |
| 2026-04-21 09:27 | 39.56203 | 2.74211 | 29 ft | 26 kts | 239° |
| 2026-04-21 09:27 | 39.55984 | 2.73745 | 29 ft | 94 kts | 238° |
| 2026-04-21 09:28 | 39.55535 | 2.72798 | 31 ft | 150 kts | 238° |
| 2026-04-21 09:28 | 39.54957 | 2.71567 | 463 ft | 163 kts | 239° |
| 2026-04-21 09:28 | 39.54348 | 2.70286 | 1069 ft | 170 kts | 235° |
| 2026-04-21 09:28 | 39.53687 | 2.69011 | 1766 ft | 169 kts | 234° |
| 2026-04-21 09:29 | 39.53003 | 2.67683 | 2159 ft | 190 kts | 234° |
| 2026-04-21 09:29 | 39.52236 | 2.66174 | 2509 ft | 208 kts | 235° |
| 2026-04-21 09:29 | 39.51401 | 2.64527 | 2725 ft | 228 kts | 234° |
| 2026-04-21 09:29 | 39.50502 | 2.62756 | 3061 ft | 241 kts | 235° |
| 2026-04-21 09:30 | 39.49536 | 2.60854 | 3270 ft | 262 kts | 235° |
| 2026-04-21 09:30 | 39.48517 | 2.58850 | 3887 ft | 268 kts | 235° |
| 2026-04-21 09:30 | 39.47485 | 2.56823 | 4625 ft | 271 kts | 236° |
| 2026-04-21 09:30 | 39.46441 | 2.54774 | 5306 ft | 276 kts | 235° |
| 2026-04-21 09:31 | 39.45383 | 2.52679 | 5997 ft | 279 kts | 239° |
| 2026-04-21 09:31 | 39.44829 | 2.50282 | 6700 ft | 283 kts | 270° |
| 2026-04-21 09:31 | 39.45078 | 2.47759 | 7473 ft | 283 kts | 280° |
| 2026-04-21 09:31 | 39.45440 | 2.45251 | 8271 ft | 284 kts | 281° |
| 2026-04-21 09:32 | 39.45816 | 2.42729 | 9026 ft | 288 kts | 281° |
| 2026-04-21 09:32 | 39.46198 | 2.40174 | 9827 ft | 290 kts | 281° |
| 2026-04-21 09:32 | 39.46580 | 2.37587 | 10452 ft | 299 kts | 280° |
| 2026-04-21 09:32 | 39.46980 | 2.34841 | 10635 ft | 323 kts | 280° |
| 2026-04-21 09:33 | 39.47403 | 2.31902 | 11030 ft | 337 kts | 280° |
| 2026-04-21 09:33 | 39.47834 | 2.28889 | 11681 ft | 343 kts | 280° |
| 2026-04-21 09:33 | 39.48266 | 2.25855 | 12520 ft | 343 kts | 280° |
| 2026-04-21 09:33 | 39.48694 | 2.22824 | 13362 ft | 344 kts | 280° |
| 2026-04-21 09:34 | 39.49124 | 2.19771 | 14162 ft | 345 kts | 280° |
| 2026-04-21 09:34 | 39.49555 | 2.16703 | 14888 ft | 349 kts | 280° |
| 2026-04-21 09:34 | 39.49990 | 2.13596 | 15622 ft | 352 kts | 279° |
| 2026-04-21 09:34 | 39.50428 | 2.10460 | 16354 ft | 355 kts | 279° |
| 2026-04-21 09:35 | 39.50869 | 2.07302 | 17078 ft | 359 kts | 279° |
| 2026-04-21 09:35 | 39.51313 | 2.04103 | 17797 ft | 362 kts | 279° |
| 2026-04-21 09:35 | 39.51762 | 2.00872 | 18472 ft | 366 kts | 279° |
| 2026-04-21 09:35 | 39.52193 | 1.97758 | 19066 ft | 369 kts | 279° |
| 2026-04-21 09:36 | 39.52647 | 1.94473 | 19693 ft | 372 kts | 279° |
| 2026-04-21 09:36 | 39.53103 | 1.91171 | 20309 ft | 375 kts | 279° |
| 2026-04-21 09:36 | 39.53563 | 1.87830 | 20890 ft | 378 kts | 279° |
| 2026-04-21 09:36 | 39.54026 | 1.84457 | 21486 ft | 381 kts | 279° |
| 2026-04-21 09:37 | 39.54490 | 1.81067 | 22079 ft | 384 kts | 279° |
| 2026-04-21 09:37 | 39.54958 | 1.77642 | 22660 ft | 387 kts | 279° |
| 2026-04-21 09:37 | 39.55429 | 1.74189 | 23232 ft | 390 kts | 279° |
| 2026-04-21 09:37 | 39.55902 | 1.70718 | 23745 ft | 393 kts | 279° |
| 2026-04-21 09:38 | 39.56371 | 1.67258 | 24206 ft | 396 kts | 279° |
| 2026-04-21 09:38 | 39.56855 | 1.63690 | 24681 ft | 399 kts | 279° |
| 2026-04-21 09:38 | 39.57329 | 1.60183 | 25114 ft | 402 kts | 279° |
| 2026-04-21 09:38 | 39.57811 | 1.56601 | 25555 ft | 404 kts | 279° |
| 2026-04-21 09:39 | 39.58295 | 1.53006 | 25995 ft | 407 kts | 279° |
| 2026-04-21 09:39 | 39.58781 | 1.49379 | 26418 ft | 409 kts | 279° |
| 2026-04-21 09:39 | 39.59271 | 1.45729 | 26847 ft | 412 kts | 279° |
| 2026-04-21 09:39 | 39.59760 | 1.42065 | 27259 ft | 414 kts | 279° |
| 2026-04-21 09:40 | 39.60236 | 1.38366 | 27662 ft | 417 kts | 276° |
| 2026-04-21 09:40 | 39.60300 | 1.34612 | 28040 ft | 419 kts | 266° |
| 2026-04-21 09:40 | 39.60082 | 1.30833 | 28450 ft | 421 kts | 265° |
| 2026-04-21 09:40 | 39.59817 | 1.27042 | 28874 ft | 422 kts | 265° |
| 2026-04-21 09:41 | 39.59552 | 1.23263 | 29421 ft | 421 kts | 265° |
| 2026-04-21 09:41 | 39.59303 | 1.19497 | 30038 ft | 417 kts | 265° |
| 2026-04-21 09:41 | 39.59070 | 1.15755 | 30526 ft | 415 kts | 265° |
| 2026-04-21 09:41 | 39.58848 | 1.12026 | 30980 ft | 414 kts | 265° |
| 2026-04-21 09:42 | 39.58634 | 1.08325 | 31450 ft | 411 kts | 265° |
| 2026-04-21 09:42 | 39.58422 | 1.04632 | 31898 ft | 410 kts | 265° |
| 2026-04-21 09:42 | 39.58211 | 1.00960 | 32337 ft | 409 kts | 265° |
| 2026-04-21 09:42 | 39.58007 | 0.97427 | 32758 ft | 407 kts | 265° |
| 2026-04-21 09:43 | 39.57794 | 0.93772 | 33202 ft | 405 kts | 265° |
| 2026-04-21 09:43 | 39.57582 | 0.90142 | 33625 ft | 404 kts | 265° |
| 2026-04-21 09:43 | 39.57368 | 0.86516 | 34035 ft | 402 kts | 265° |
| 2026-04-21 09:43 | 39.57155 | 0.82913 | 34391 ft | 401 kts | 265° |
| 2026-04-21 09:44 | 39.56940 | 0.79306 | 34702 ft | 401 kts | 265° |
| 2026-04-21 09:44 | 39.56724 | 0.75702 | 34977 ft | 402 kts | 265° |
| 2026-04-21 09:44 | 39.56286 | 0.68429 | 34962 ft | 404 kts | 265° |
| 2026-04-21 09:45 | 39.55848 | 0.61245 | 34956 ft | 396 kts | 265° |
| 2026-04-21 09:45 | 39.55411 | 0.54126 | 34973 ft | 397 kts | 265° |
| 2026-04-21 09:46 | 39.54970 | 0.46976 | 34970 ft | 398 kts | 265° |
| 2026-04-21 09:46 | 39.54525 | 0.39818 | 34962 ft | 399 kts | 265° |
| 2026-04-21 09:47 | 39.54074 | 0.32644 | 34960 ft | 400 kts | 265° |
| 2026-04-21 09:47 | 39.53614 | 0.25453 | 34955 ft | 400 kts | 265° |
| 2026-04-21 09:48 | 39.53145 | 0.18273 | 34954 ft | 400 kts | 265° |
| 2026-04-21 09:48 | 39.52673 | 0.11102 | 34952 ft | 399 kts | 265° |
| 2026-04-21 09:49 | 39.52197 | 0.03943 | 34953 ft | 399 kts | 265° |
| 2026-04-21 09:49 | 39.51729 | -0.03055 | 34940 ft | 398 kts | 264° |
| 2026-04-21 09:50 | 39.51410 | -0.07785 | 34944 ft | 397 kts | 264° |
| 2026-04-21 09:50 | 39.50762 | -0.17309 | 34944 ft | 397 kts | 264° |
| 2026-04-21 09:51 | 39.50274 | -0.24416 | 34942 ft | 396 kts | 264° |
| 2026-04-21 09:51 | 39.49784 | -0.31470 | 34940 ft | 396 kts | 264° |
| 2026-04-21 09:52 | 39.49285 | -0.38625 | 34941 ft | 396 kts | 264° |
| 2026-04-21 09:52 | 39.48590 | -0.45639 | 34929 ft | 396 kts | 254° |
| 2026-04-21 09:53 | 39.46384 | -0.52147 | 34931 ft | 398 kts | 238° |
| 2026-04-21 09:53 | 39.43068 | -0.57881 | 34940 ft | 399 kts | 234° |
| 2026-04-21 09:54 | 39.39668 | -0.63562 | 34938 ft | 399 kts | 234° |
| 2026-04-21 09:54 | 39.36292 | -0.69264 | 34939 ft | 400 kts | 234° |
| 2026-04-21 09:55 | 39.32925 | -0.74980 | 34930 ft | 400 kts | 234° |
| 2026-04-21 09:55 | 39.29556 | -0.80695 | 34950 ft | 399 kts | 234° |
| 2026-04-21 09:56 | 39.26190 | -0.86390 | 34941 ft | 399 kts | 234° |
| 2026-04-21 09:56 | 39.22814 | -0.92079 | 34937 ft | 399 kts | 234° |
| 2026-04-21 09:57 | 39.19446 | -0.97746 | 34933 ft | 398 kts | 234° |
| 2026-04-21 09:57 | 39.16145 | -1.03292 | 34938 ft | 397 kts | 234° |
| 2026-04-21 09:58 | 39.12781 | -1.08938 | 34932 ft | 397 kts | 233° |
| 2026-04-21 09:58 | 39.09425 | -1.14560 | 34938 ft | 395 kts | 233° |
| 2026-04-21 09:59 | 39.06076 | -1.20162 | 34938 ft | 395 kts | 233° |
| 2026-04-21 09:59 | 39.02725 | -1.25755 | 34942 ft | 394 kts | 233° |
| 2026-04-21 10:00 | 38.99390 | -1.31318 | 34947 ft | 393 kts | 233° |
| 2026-04-21 10:00 | 38.96073 | -1.36849 | 34946 ft | 393 kts | 233° |
| 2026-04-21 10:01 | 38.92742 | -1.42397 | 34951 ft | 392 kts | 233° |
| 2026-04-21 10:01 | 38.89409 | -1.47939 | 34949 ft | 392 kts | 233° |
| 2026-04-21 10:02 | 38.84405 | -1.56240 | 34960 ft | 392 kts | 233° |
| 2026-04-21 10:03 | 38.81071 | -1.61761 | 34955 ft | 391 kts | 233° |
| 2026-04-21 10:03 | 38.77734 | -1.67276 | 34958 ft | 391 kts | 233° |
| 2026-04-21 10:04 | 38.74403 | -1.72773 | 34960 ft | 390 kts | 233° |
| 2026-04-21 10:04 | 38.71073 | -1.78257 | 34960 ft | 390 kts | 233° |
| 2026-04-21 10:05 | 38.67740 | -1.83727 | 34959 ft | 390 kts | 232° |
| 2026-04-21 10:05 | 38.64404 | -1.89196 | 34959 ft | 389 kts | 232° |
| 2026-04-21 10:06 | 38.61074 | -1.94647 | 34961 ft | 389 kts | 232° |
| 2026-04-21 10:06 | 38.57762 | -2.00061 | 34958 ft | 389 kts | 232° |
| 2026-04-21 10:07 | 38.54476 | -2.05425 | 34959 ft | 388 kts | 232° |
| 2026-04-21 10:07 | 38.51140 | -2.10860 | 34956 ft | 388 kts | 232° |
| 2026-04-21 10:08 | 38.48372 | -2.15368 | 34946 ft | 388 kts | 232° |
| 2026-04-21 10:08 | 38.45041 | -2.20789 | 34952 ft | 388 kts | 232° |
| 2026-04-21 10:09 | 38.41708 | -2.26207 | 34948 ft | 388 kts | 232° |
| 2026-04-21 10:09 | 38.38369 | -2.31633 | 34947 ft | 388 kts | 233° |
| 2026-04-21 10:10 | 38.35865 | -2.37702 | 34937 ft | 389 kts | 249° |
| 2026-04-21 10:10 | 38.34587 | -2.44399 | 34940 ft | 390 kts | 256° |
| 2026-04-21 10:11 | 38.33543 | -2.51189 | 34944 ft | 390 kts | 257° |
| 2026-04-21 10:11 | 38.32486 | -2.57967 | 34942 ft | 390 kts | 256° |
| 2026-04-21 10:12 | 38.31411 | -2.64738 | 34921 ft | 391 kts | 256° |
| 2026-04-21 10:12 | 38.30325 | -2.71510 | 34925 ft | 390 kts | 256° |
| 2026-04-21 10:13 | 38.29234 | -2.78273 | 34918 ft | 390 kts | 256° |
| 2026-04-21 10:13 | 38.28139 | -2.85034 | 34911 ft | 390 kts | 256° |
| 2026-04-21 10:14 | 38.27043 | -2.91781 | 34918 ft | 389 kts | 256° |
| 2026-04-21 10:14 | 38.25941 | -2.98535 | 34907 ft | 389 kts | 256° |
| 2026-04-21 10:15 | 38.24860 | -3.05140 | 34906 ft | 389 kts | 256° |
| 2026-04-21 10:15 | 38.23753 | -3.11870 | 34907 ft | 389 kts | 255° |
| 2026-04-21 10:15 | 38.23200 | -3.15229 | 34683 ft | 386 kts | 255° |
| 2026-04-21 10:16 | 38.22658 | -3.18520 | 34433 ft | 378 kts | 255° |
| 2026-04-21 10:16 | 38.22130 | -3.21723 | 34144 ft | 366 kts | 255° |
| 2026-04-21 10:16 | 38.21609 | -3.24871 | 33587 ft | 361 kts | 255° |
| 2026-04-21 10:16 | 38.21092 | -3.27980 | 32976 ft | 358 kts | 255° |
| 2026-04-21 10:17 | 38.20578 | -3.31064 | 32369 ft | 355 kts | 256° |
| 2026-04-21 10:17 | 38.20068 | -3.34121 | 31759 ft | 353 kts | 256° |
| 2026-04-21 10:17 | 38.19560 | -3.37161 | 31119 ft | 352 kts | 256° |
| 2026-04-21 10:17 | 38.19058 | -3.40162 | 30508 ft | 351 kts | 256° |
| 2026-04-21 10:18 | 38.18551 | -3.43187 | 29915 ft | 350 kts | 257° |
| 2026-04-21 10:18 | 38.18044 | -3.46214 | 29204 ft | 349 kts | 256° |
| 2026-04-21 10:18 | 38.17538 | -3.49227 | 28516 ft | 347 kts | 256° |
| 2026-04-21 10:18 | 38.17035 | -3.52217 | 27842 ft | 346 kts | 256° |
| 2026-04-21 10:19 | 38.16533 | -3.55202 | 27186 ft | 345 kts | 256° |
| 2026-04-21 10:19 | 38.16029 | -3.58186 | 26497 ft | 345 kts | 256° |
| 2026-04-21 10:19 | 38.15526 | -3.61163 | 25825 ft | 345 kts | 256° |
| 2026-04-21 10:19 | 38.14972 | -3.64129 | 25173 ft | 344 kts | 253° |
| 2026-04-21 10:20 | 38.14292 | -3.67046 | 24530 ft | 344 kts | 251° |
| 2026-04-21 10:20 | 38.13569 | -3.69936 | 23904 ft | 344 kts | 251° |
| 2026-04-21 10:20 | 38.12833 | -3.72834 | 23250 ft | 343 kts | 251° |
| 2026-04-21 10:20 | 38.12106 | -3.75709 | 22522 ft | 342 kts | 251° |
| 2026-04-21 10:21 | 38.11385 | -3.78584 | 21819 ft | 341 kts | 251° |
| 2026-04-21 10:21 | 38.10673 | -3.81441 | 21132 ft | 339 kts | 251° |
| 2026-04-21 10:21 | 38.09965 | -3.84298 | 20452 ft | 338 kts | 251° |
| 2026-04-21 10:21 | 38.09262 | -3.87137 | 19783 ft | 337 kts | 251° |
| 2026-04-21 10:22 | 38.08561 | -3.89971 | 19151 ft | 335 kts | 251° |
| 2026-04-21 10:22 | 38.07864 | -3.92794 | 18520 ft | 334 kts | 251° |
| 2026-04-21 10:22 | 38.07171 | -3.95596 | 17850 ft | 333 kts | 251° |
| 2026-04-21 10:22 | 38.06479 | -3.98393 | 17156 ft | 331 kts | 251° |
| 2026-04-21 10:23 | 38.05815 | -4.01073 | 16477 ft | 330 kts | 251° |
| 2026-04-21 10:23 | 38.05132 | -4.03829 | 15809 ft | 328 kts | 251° |
| 2026-04-21 10:23 | 38.04451 | -4.06574 | 15145 ft | 327 kts | 251° |
| 2026-04-21 10:23 | 38.03761 | -4.09348 | 14528 ft | 332 kts | 251° |
| 2026-04-21 10:24 | 38.03068 | -4.12135 | 14208 ft | 328 kts | 251° |
| 2026-04-21 10:24 | 38.02387 | -4.14871 | 13957 ft | 322 kts | 251° |
| 2026-04-21 10:24 | 38.01718 | -4.17557 | 13725 ft | 316 kts | 251° |
| 2026-04-21 10:24 | 38.01061 | -4.20189 | 13458 ft | 311 kts | 251° |
| 2026-04-21 10:25 | 38.00412 | -4.22787 | 13192 ft | 306 kts | 251° |
| 2026-04-21 10:25 | 37.99775 | -4.25336 | 12928 ft | 302 kts | 251° |
| 2026-04-21 10:25 | 37.99147 | -4.27847 | 12657 ft | 297 kts | 251° |
| 2026-04-21 10:25 | 37.98524 | -4.30331 | 12397 ft | 293 kts | 251° |
| 2026-04-21 10:26 | 37.97910 | -4.32780 | 12146 ft | 289 kts | 251° |
| 2026-04-21 10:26 | 37.97304 | -4.35193 | 11893 ft | 286 kts | 251° |
| 2026-04-21 10:26 | 37.96704 | -4.37581 | 11645 ft | 282 kts | 251° |
| 2026-04-21 10:26 | 37.96110 | -4.39943 | 11398 ft | 280 kts | 251° |
| 2026-04-21 10:27 | 37.95523 | -4.42274 | 11141 ft | 277 kts | 251° |
| 2026-04-21 10:27 | 37.94939 | -4.44586 | 10903 ft | 274 kts | 251° |
| 2026-04-21 10:27 | 37.94362 | -4.46872 | 10656 ft | 272 kts | 251° |
| 2026-04-21 10:27 | 37.93790 | -4.49146 | 10416 ft | 270 kts | 251° |
| 2026-04-21 10:28 | 37.93219 | -4.51400 | 10177 ft | 267 kts | 251° |
| 2026-04-21 10:28 | 37.92655 | -4.53632 | 9952 ft | 266 kts | 251° |
| 2026-04-21 10:28 | 37.92093 | -4.55857 | 9714 ft | 264 kts | 251° |
| 2026-04-21 10:28 | 37.91540 | -4.58040 | 9451 ft | 263 kts | 251° |
| 2026-04-21 10:29 | 37.90977 | -4.60259 | 9182 ft | 261 kts | 250° |
| 2026-04-21 10:29 | 37.90430 | -4.62412 | 8942 ft | 259 kts | 250° |
| 2026-04-21 10:29 | 37.89880 | -4.64576 | 8683 ft | 258 kts | 250° |
| 2026-04-21 10:29 | 37.89330 | -4.66733 | 8431 ft | 257 kts | 250° |
| 2026-04-21 10:30 | 37.88785 | -4.68881 | 8186 ft | 255 kts | 250° |
| 2026-04-21 10:30 | 37.88243 | -4.71009 | 7942 ft | 254 kts | 250° |
| 2026-04-21 10:30 | 37.87700 | -4.73133 | 7706 ft | 253 kts | 250° |
| 2026-04-21 10:30 | 37.87161 | -4.75249 | 7458 ft | 252 kts | 250° |
| 2026-04-21 10:31 | 37.86626 | -4.77347 | 7216 ft | 250 kts | 250° |
| 2026-04-21 10:31 | 37.86091 | -4.79441 | 6972 ft | 249 kts | 250° |
| 2026-04-21 10:31 | 37.85559 | -4.81520 | 6738 ft | 249 kts | 250° |
| 2026-04-21 10:31 | 37.85026 | -4.83600 | 6504 ft | 248 kts | 250° |
| 2026-04-21 10:32 | 37.84526 | -4.85688 | 6268 ft | 248 kts | 254° |
| 2026-04-21 10:32 | 37.84173 | -4.87807 | 6118 ft | 243 kts | 256° |
| 2026-04-21 10:32 | 37.83868 | -4.89875 | 6084 ft | 235 kts | 257° |
| 2026-04-21 10:32 | 37.83579 | -4.91868 | 6069 ft | 225 kts | 256° |
| 2026-04-21 10:33 | 37.83294 | -4.93765 | 6068 ft | 215 kts | 253° |
| 2026-04-21 10:33 | 37.82892 | -4.95530 | 6077 ft | 202 kts | 248° |
| 2026-04-21 10:33 | 37.82453 | -4.97156 | 6064 ft | 189 kts | 247° |
| 2026-04-21 10:33 | 37.82046 | -4.98681 | 6033 ft | 178 kts | 248° |
| 2026-04-21 10:34 | 37.81663 | -5.00135 | 5931 ft | 200 kts | 248° |
| 2026-04-21 10:34 | 37.81168 | -5.01979 | 5972 ft | 239 kts | 249° |
| 2026-04-21 10:34 | 37.80608 | -5.04093 | 6068 ft | 262 kts | 249° |
| 2026-04-21 10:34 | 37.80031 | -5.06307 | 6054 ft | 266 kts | 249° |
| 2026-04-21 10:35 | 37.79461 | -5.08519 | 6056 ft | 264 kts | 249° |
| 2026-04-21 10:35 | 37.78890 | -5.10725 | 6059 ft | 263 kts | 249° |
| 2026-04-21 10:35 | 37.78321 | -5.12924 | 6062 ft | 264 kts | 249° |
| 2026-04-21 10:35 | 37.77749 | -5.15130 | 6062 ft | 264 kts | 249° |
| 2026-04-21 10:36 | 37.77179 | -5.17337 | 6058 ft | 264 kts | 249° |
| 2026-04-21 10:36 | 37.76611 | -5.19536 | 6047 ft | 264 kts | 249° |
| 2026-04-21 10:36 | 37.76042 | -5.21738 | 6036 ft | 263 kts | 249° |
| 2026-04-21 10:36 | 37.75472 | -5.23933 | 6050 ft | 264 kts | 249° |
| 2026-04-21 10:37 | 37.74900 | -5.26146 | 6032 ft | 265 kts | 249° |
| 2026-04-21 10:37 | 37.74324 | -5.28366 | 6022 ft | 266 kts | 249° |
| 2026-04-21 10:37 | 37.73748 | -5.30583 | 6028 ft | 266 kts | 249° |
| 2026-04-21 10:37 | 37.73169 | -5.32812 | 6024 ft | 267 kts | 249° |
| 2026-04-21 10:38 | 37.72591 | -5.35032 | 6029 ft | 266 kts | 248° |
| 2026-04-21 10:38 | 37.72008 | -5.37250 | 6029 ft | 265 kts | 248° |
| 2026-04-21 10:38 | 37.71432 | -5.39462 | 6028 ft | 264 kts | 249° |
| 2026-04-21 10:38 | 37.70863 | -5.41660 | 6030 ft | 263 kts | 249° |
| 2026-04-21 10:39 | 37.70291 | -5.43853 | 6030 ft | 262 kts | 248° |
| 2026-04-21 10:39 | 37.69722 | -5.46033 | 6029 ft | 261 kts | 249° |
| 2026-04-21 10:39 | 37.69152 | -5.48200 | 6034 ft | 260 kts | 248° |
| 2026-04-21 10:39 | 37.68587 | -5.50372 | 6033 ft | 260 kts | 249° |
| 2026-04-21 10:40 | 37.68019 | -5.52544 | 6025 ft | 261 kts | 248° |
| 2026-04-21 10:40 | 37.67448 | -5.54716 | 6017 ft | 261 kts | 248° |
| 2026-04-21 10:40 | 37.66875 | -5.56899 | 6018 ft | 262 kts | 248° |
| 2026-04-21 10:40 | 37.66301 | -5.59086 | 6009 ft | 262 kts | 248° |
| 2026-04-21 10:41 | 37.65730 | -5.61264 | 6012 ft | 262 kts | 248° |
| 2026-04-21 10:41 | 37.65164 | -5.63417 | 6016 ft | 262 kts | 248° |
| 2026-04-21 10:41 | 37.64588 | -5.65607 | 6007 ft | 262 kts | 248° |
| 2026-04-21 10:41 | 37.64015 | -5.67783 | 6003 ft | 262 kts | 248° |
| 2026-04-21 10:42 | 37.63440 | -5.69962 | 6006 ft | 261 kts | 248° |
| 2026-04-21 10:42 | 37.62867 | -5.72133 | 6011 ft | 261 kts | 248° |
| 2026-04-21 10:42 | 37.62293 | -5.74307 | 6013 ft | 261 kts | 248° |
| 2026-04-21 10:42 | 37.61719 | -5.76479 | 6004 ft | 261 kts | 248° |
| 2026-04-21 10:43 | 37.61145 | -5.78646 | 6010 ft | 261 kts | 248° |
| 2026-04-21 10:43 | 37.60570 | -5.80818 | 6009 ft | 261 kts | 248° |
| 2026-04-21 10:43 | 37.59993 | -5.82997 | 6005 ft | 262 kts | 248° |
| 2026-04-21 10:43 | 37.59417 | -5.85171 | 6009 ft | 262 kts | 247° |
| 2026-04-21 10:44 | 37.58838 | -5.87352 | 6008 ft | 262 kts | 248° |
| 2026-04-21 10:44 | 37.58259 | -5.89530 | 6003 ft | 262 kts | 247° |
| 2026-04-21 10:44 | 37.57396 | -5.91476 | 5991 ft | 246 kts | 223° |
| 2026-04-21 10:44 | 37.56226 | -5.92933 | 5893 ft | 227 kts | 221° |
| 2026-04-21 10:45 | 37.55152 | -5.94274 | 5776 ft | 208 kts | 221° |
| 2026-04-21 10:45 | 37.54175 | -5.95514 | 5646 ft | 191 kts | 221° |
| 2026-04-21 10:45 | 37.53286 | -5.96657 | 5529 ft | 176 kts | 221° |
| 2026-04-21 10:45 | 37.52434 | -5.97755 | 5197 ft | 175 kts | 222° |
| 2026-04-21 10:46 | 37.51585 | -5.98855 | 4818 ft | 176 kts | 222° |
| 2026-04-21 10:46 | 37.50737 | -5.99959 | 4506 ft | 174 kts | 221° |
| 2026-04-21 10:46 | 37.49938 | -6.01004 | 4213 ft | 172 kts | 222° |
| 2026-04-21 10:46 | 37.49113 | -6.02087 | 3925 ft | 168 kts | 221° |
| 2026-04-21 10:47 | 37.48311 | -6.03139 | 3815 ft | 169 kts | 221° |
| 2026-04-21 10:47 | 37.47483 | -6.04223 | 3735 ft | 174 kts | 221° |
| 2026-04-21 10:47 | 37.46651 | -6.05316 | 3644 ft | 172 kts | 221° |
| 2026-04-21 10:47 | 37.45820 | -6.06407 | 3484 ft | 173 kts | 222° |
| 2026-04-21 10:48 | 37.44977 | -6.07513 | 3307 ft | 176 kts | 221° |
| 2026-04-21 10:48 | 37.44017 | -6.08404 | 3095 ft | 169 kts | 190° |
| 2026-04-21 10:48 | 37.42948 | -6.08095 | 2936 ft | 165 kts | 139° |
| 2026-04-21 10:48 | 37.42417 | -6.06772 | 2698 ft | 181 kts | 110° |
| 2026-04-21 10:49 | 37.41981 | -6.05259 | 2340 ft | 185 kts | 107° |
| 2026-04-21 10:49 | 37.41810 | -6.03654 | 2023 ft | 186 kts | 97° |
| 2026-04-21 10:49 | 37.41758 | -6.02082 | 1745 ft | 176 kts | 92° |
| 2026-04-21 10:49 | 37.41759 | -6.00598 | 1508 ft | 166 kts | 90° |
| 2026-04-21 10:50 | 37.41761 | -5.99648 | 1397 ft | 155 kts | 91° |
| 2026-04-21 10:50 | 37.41767 | -5.97958 | 1118 ft | 139 kts | 89° |
| 2026-04-21 10:50 | 37.41771 | -5.96770 | 949 ft | 137 kts | 89° |
| 2026-04-21 10:50 | 37.41766 | -5.95585 | 840 ft | 136 kts | 89° |
| 2026-04-21 10:51 | 37.41780 | -5.94370 | 649 ft | 145 kts | 89° |
| 2026-04-21 10:51 | 37.41785 | -5.93102 | 519 ft | 141 kts | 89° |
| 2026-04-21 10:51 | 37.41783 | -5.91893 | 252 ft | 138 kts | 88° |
| 2026-04-21 10:51 | 37.41787 | -5.90698 | 96 ft | 132 kts | 87° |
| 2026-04-21 10:52 | 37.41794 | -5.89694 | 97 ft | 94 kts | 90° |
| 2026-04-21 10:52 | 37.41797 | -5.89060 | 101 ft | 45 kts | 90° |
| 2026-04-21 10:52 | 37.41805 | -5.88801 | 103 ft | 16 kts | 59° |
| 2026-04-21 10:52 | 37.41906 | -5.88760 | 101 ft | 14 kts | 9° |
| 2026-04-21 10:53 | 37.41981 | -5.88769 | 102 ft | 6 kts | 290° |
| 2026-04-21 10:53 | 37.41984 | -5.88864 | 101 ft | 21 kts | 269° |
| 2026-04-21 10:53 | 37.41985 | -5.89065 | 100 ft | 23 kts | 269° |
| 2026-04-21 10:53 | 37.41983 | -5.89264 | 99 ft | 22 kts | 270° |
| 2026-04-21 10:54 | 37.41982 | -5.89458 | 97 ft | 22 kts | 271° |
| 2026-04-21 10:54 | 37.41981 | -5.89647 | 96 ft | 21 kts | 268° |
| 2026-04-21 10:54 | 37.41981 | -5.89819 | 95 ft | 12 kts | 270° |
| 2026-04-21 10:54 | 37.42006 | -5.89886 | 94 ft | 8 kts | 330° |
| 2026-04-21 10:55 | 37.42038 | -5.89909 | 94 ft | 8 kts | 308° |
| 2026-04-21 10:55 | 37.42054 | -5.89986 | 93 ft | 11 kts | 268° |
| 2026-04-21 10:55 | 37.42058 | -5.90055 | 95 ft | 4 kts | 311° |
| 2026-04-21 10:55 | 37.42086 | -5.90059 | 93 ft | 4 kts | 354° |
| 2026-04-21 10:56 | 37.42116 | -5.90063 | 95 ft | 4 kts | 354° |
| 2026-04-21 10:56 | 37.42123 | -5.90064 | 94 ft | 0 kts | 354° |